Fall Branch, Tennessee
Current Conditions -  °F | °C
As of 5:53 PM on Tuesday 25 Nov 2014 (Local Time) from KTRI Reporting Station
Scattered Clouds Scattered Clouds  
Wind Chill: 44°   Ceiling: Unl
Heat Index: 44°   Visibility: 10mi
Dew Point: 29°   Wind: 0mph
Humidity: 55%   Direction: NA
Pressure: 30.07"   Gusts: NA
Location:  36.42°N, 82.62°W
Report Text: KTRI 252253Z 00000KT 10SM SCT180 SCT250 07/M02 A3007 RMK AO2 SLP178 T00671017
Loading
Personal Weather Stations






























Interactive Weather Map New forecast layout! Learn more

10-Day Weather Forecast

Advertisements
Track Severe Weather on mobile